createdAt,value
2019-04-26T00:01:19.020Z,5.10
2019-04-26T00:03:49.182Z,5.40
2019-04-26T00:06:19.452Z,6.40
2019-04-26T00:08:54.202Z,5.90
2019-04-26T00:11:49.408Z,5.80
2019-04-26T00:14:32.945Z,6.00
2019-04-26T00:17:10.168Z,6.20
2019-04-26T00:19:41.164Z,6.40
2019-04-26T00:22:12.185Z,6.80
2019-04-26T00:24:42.900Z,6.90
2019-04-26T00:27:12.981Z,7.10
2019-04-26T00:29:42.695Z,7.20
2019-04-26T00:32:13.225Z,7.50
2019-04-26T00:34:42.911Z,7.60
2019-04-26T00:37:13.043Z,7.70
2019-04-26T00:39:43.741Z,8.00
2019-04-26T00:42:14.659Z,8.30
2019-04-26T00:44:45.084Z,8.40
2019-04-26T00:47:16.948Z,8.60
2019-04-26T00:49:47.078Z,8.90
2019-04-26T00:52:17.463Z,9.10
2019-04-26T00:54:48.219Z,9.20
2019-04-26T00:57:20.316Z,9.20
2019-04-26T00:59:51.520Z,9.40
2019-04-26T01:02:27.805Z,10.00
2019-04-26T01:04:57.613Z,10.10
2019-04-26T01:07:27.317Z,10.40
2019-04-26T01:09:57.123Z,10.50
2019-04-26T01:12:27.061Z,10.40
2019-04-26T01:14:56.749Z,10.50
2019-04-26T01:17:26.809Z,10.90
2019-04-26T01:19:58.310Z,11.10
2019-04-26T01:22:34.546Z,11.00
2019-04-26T01:25:06.859Z,11.30
2019-04-26T01:27:38.799Z,11.10
2019-04-26T01:30:12.706Z,12.30
2019-04-26T01:32:44.635Z,11.40
2019-04-26T01:35:14.618Z,11.30
2019-04-26T01:37:47.550Z,11.80
2019-04-26T01:40:21.065Z,11.80
2019-04-26T01:43:05.776Z,11.70
2019-04-26T01:45:52.801Z,11.80
2019-04-26T01:48:43.955Z,11.80
2019-04-26T01:51:39.373Z,11.80
2019-04-26T01:54:13.011Z,11.80
2019-04-26T01:56:43.183Z,12.10
2019-04-26T01:59:16.206Z,12.40
2019-04-26T02:02:14.537Z,12.50
2019-04-26T02:04:47.878Z,12.70
2019-04-26T02:07:37.408Z,13.10
2019-04-26T02:10:17.811Z,13.50
2019-04-26T02:12:49.627Z,13.80
2019-04-26T02:15:25.604Z,13.80
2019-04-26T02:17:59.272Z,14.40
2019-04-26T02:21:03.444Z,14.50
2019-04-26T02:23:38.626Z,14.90
2019-04-26T02:26:26.785Z,15.40
2019-04-26T02:28:56.551Z,15.80
2019-04-26T02:31:28.779Z,16.30
2019-04-26T02:33:59.571Z,16.60
2019-04-26T02:36:48.027Z,17.00
2019-04-26T02:39:11.750Z,17.20
2019-04-26T02:41:41.536Z,17.50
2019-04-26T02:44:13.946Z,18.10
2019-04-26T02:46:55.698Z,18.80
2019-04-26T02:49:35.090Z,19.80
2019-04-26T02:52:39.199Z,20.40
2019-04-26T02:55:27.884Z,21.10
2019-04-26T02:57:58.204Z,21.70
2019-04-26T03:00:29.655Z,22.40
2019-04-26T03:03:07.608Z,23.20
2019-04-26T03:05:41.496Z,23.50
2019-04-26T03:08:16.636Z,25.10
2019-04-26T03:11:17.245Z,24.20
2019-04-26T03:14:14.895Z,24.60
2019-04-26T03:16:58.519Z,24.80
2019-04-26T03:19:54.318Z,25.50
2019-04-26T03:22:42.921Z,25.80
2019-04-26T03:25:31.364Z,26.50
2019-04-26T03:28:17.255Z,26.90
2019-04-26T03:31:00.729Z,27.20
2019-04-26T03:33:58.289Z,27.70
2019-04-26T03:37:20.086Z,28.30
2019-04-26T03:39:56.960Z,28.80
2019-04-26T03:43:16.559Z,29.40
2019-04-26T03:46:01.538Z,29.50
2019-04-26T03:49:27.100Z,29.90
2019-04-26T03:52:41.542Z,31.10
2019-04-26T03:55:58.950Z,30.70
2019-04-26T03:59:18.611Z,31.80
2019-04-26T04:02:05.224Z,32.00
2019-04-26T04:04:49.556Z,32.80
2019-04-26T04:07:36.128Z,33.70
2019-04-26T04:10:05.173Z,34.40
2019-04-26T04:13:02.928Z,34.90
2019-04-26T04:15:44.891Z,35.50
2019-04-26T04:18:23.328Z,36.10
2019-04-26T04:21:22.248Z,36.40
2019-04-26T04:24:35.837Z,36.50
2019-04-26T04:27:20.671Z,38.10
2019-04-26T04:29:58.052Z,37.00
2019-04-26T04:32:42.006Z,36.80
2019-04-26T04:35:14.383Z,36.60
2019-04-26T04:38:08.419Z,35.90
2019-04-26T04:41:08.542Z,35.70
2019-04-26T04:43:49.264Z,34.60
2019-04-26T04:47:23.840Z,33.00
2019-04-26T04:49:58.897Z,32.40
2019-04-26T04:52:59.838Z,32.50
2019-04-26T04:55:47.840Z,32.30
2019-04-26T04:58:29.000Z,31.30
2019-04-26T05:02:05.305Z,31.20
2019-04-26T05:05:14.301Z,30.80
2019-04-26T05:08:28.283Z,30.30
2019-04-26T05:11:10.352Z,29.50
2019-04-26T05:14:08.886Z,28.30
2019-04-26T05:17:09.246Z,27.30
2019-04-26T05:20:27.544Z,26.50
2019-04-26T05:23:40.315Z,25.30
2019-04-26T05:26:57.144Z,24.10
2019-04-26T05:29:58.220Z,23.60
2019-04-26T05:32:57.100Z,21.60
2019-04-26T05:35:58.655Z,20.10
2019-04-26T05:39:07.828Z,19.70
2019-04-26T05:42:53.678Z,19.50
2019-04-26T05:46:28.288Z,19.00
2019-04-26T05:49:34.154Z,19.50
2019-04-26T05:53:01.863Z,18.80
2019-04-26T05:56:21.619Z,18.50
2019-04-26T05:59:17.207Z,17.30
2019-04-26T06:02:30.883Z,15.80
2019-04-26T06:06:00.205Z,15.80
2019-04-26T06:09:01.702Z,17.30
2019-04-26T06:11:45.560Z,16.70
2019-04-26T06:14:46.158Z,16.60
2019-04-26T06:17:51.741Z,15.70
2019-04-26T06:21:12.633Z,15.10
2019-04-26T06:24:21.443Z,15.40
2019-04-26T06:27:48.258Z,15.20
2019-04-26T06:30:25.943Z,14.10
2019-04-26T06:33:15.599Z,14.20
2019-04-26T06:35:49.241Z,14.40
2019-04-26T06:39:06.941Z,13.80
2019-04-26T06:42:35.067Z,12.30
2019-04-26T06:45:52.868Z,11.30
2019-04-26T06:49:03.645Z,11.90
2019-04-26T06:51:42.917Z,11.40
2019-04-26T06:54:52.391Z,11.00
2019-04-26T06:58:05.431Z,9.70
2019-04-26T07:01:13.620Z,9.60
2019-04-26T07:04:29.385Z,9.40
2019-04-26T07:07:58.107Z,8.90
2019-04-26T07:11:07.248Z,7.50
2019-04-26T07:14:12.069Z,6.40
2019-04-26T07:17:04.996Z,6.60
2019-04-26T07:20:43.646Z,6.80
2019-04-26T07:24:13.491Z,5.90
2019-04-26T07:27:33.726Z,4.40
2019-04-26T07:30:14.491Z,4.70
2019-04-26T07:33:32.010Z,4.30
2019-04-26T07:36:57.476Z,3.60
2019-04-26T07:40:28.948Z,3.50
2019-04-26T07:43:46.747Z,4.30
2019-04-26T07:46:53.713Z,3.20
2019-04-26T07:50:07.411Z,2.70
2019-04-26T07:53:13.439Z,2.10
2019-04-26T07:55:57.929Z,2.60
2019-04-26T07:59:55.217Z,1.80
2019-04-26T08:03:04.177Z,1.00
2019-04-26T08:06:07.384Z,1.00
2019-04-26T08:08:48.836Z,1.00
2019-04-26T08:11:33.262Z,1.00
2019-04-26T08:14:19.909Z,1.00
2019-04-26T08:17:17.833Z,1.00
2019-04-26T08:20:18.900Z,1.00
2019-04-26T08:22:54.300Z,1.00
2019-04-26T08:25:27.697Z,1.00
2019-04-26T08:28:01.171Z,1.00
2019-04-26T08:30:35.449Z,1.00
2019-04-26T08:33:12.830Z,1.00
2019-04-26T08:35:48.939Z,1.00
2019-04-26T08:38:22.301Z,1.00
2019-04-26T08:40:48.981Z,1.00
2019-04-26T08:43:30.830Z,1.00
2019-04-26T08:46:12.998Z,1.00
2019-04-26T08:48:58.191Z,1.00
2019-04-26T08:51:31.222Z,1.00
2019-04-26T08:54:05.549Z,1.00
2019-04-26T08:56:40.970Z,1.00
2019-04-26T08:59:22.551Z,1.00
2019-04-26T09:02:04.194Z,1.00
2019-04-26T09:04:43.443Z,1.00
2019-04-26T09:07:20.503Z,1.00
2019-04-26T09:09:57.446Z,1.00
2019-04-26T09:12:31.840Z,1.00
2019-04-26T09:15:09.205Z,1.00
2019-04-26T09:17:38.875Z,1.00
2019-04-26T09:20:09.628Z,1.00
2019-04-26T09:23:03.921Z,1.00
2019-04-26T09:25:43.245Z,1.00
2019-04-26T09:28:31.693Z,1.00
2019-04-26T09:31:15.350Z,1.00
2019-04-26T09:33:49.153Z,1.00
2019-04-26T09:36:18.894Z,1.00
2019-04-26T09:38:48.583Z,1.00
2019-04-26T09:41:18.290Z,1.00
2019-04-26T09:43:54.991Z,1.00
2019-04-26T09:46:44.348Z,1.00
2019-04-26T09:49:20.618Z,1.00
2019-04-26T09:51:50.310Z,1.00
2019-04-26T09:54:20.085Z,1.00
2019-04-26T09:56:49.753Z,1.00
2019-04-26T09:59:19.729Z,1.00
2019-04-26T10:01:49.634Z,1.00
2019-04-26T10:04:19.345Z,1.00
2019-04-26T10:06:49.002Z,1.00
2019-04-26T10:09:22.659Z,1.00
2019-04-26T10:11:56.084Z,1.00
2019-04-26T10:14:36.966Z,1.00
2019-04-26T10:17:15.652Z,1.00
2019-04-26T10:19:49.030Z,1.00
2019-04-26T10:22:19.009Z,1.00
2019-04-26T10:24:48.675Z,1.00
2019-04-26T10:27:18.562Z,1.00
2019-04-26T10:29:48.307Z,1.00
2019-04-26T10:32:21.823Z,1.00
2019-04-26T10:34:49.580Z,1.00
2019-04-26T10:37:19.467Z,1.00
2019-04-26T10:39:49.150Z,1.00
2019-04-26T10:42:19.187Z,1.00
2019-04-26T10:44:48.937Z,1.00
2019-04-26T10:47:18.882Z,1.00
2019-04-26T10:49:49.770Z,1.00
2019-04-26T10:52:29.391Z,1.00
2019-04-26T10:55:12.135Z,1.00
2019-04-26T10:57:43.572Z,1.00
2019-04-26T11:00:23.475Z,1.00
2019-04-26T11:02:53.326Z,1.00
2019-04-26T11:05:23.616Z,1.00
2019-04-26T11:07:53.551Z,1.00
2019-04-26T11:10:24.443Z,1.00
2019-04-26T11:12:54.291Z,1.00
2019-04-26T11:15:24.084Z,1.00
2019-04-26T11:17:54.074Z,1.00
2019-04-26T11:20:57.319Z,1.00
2019-04-26T11:23:27.023Z,1.00
2019-04-26T11:25:57.846Z,1.00
2019-04-26T11:28:28.278Z,1.00
2019-04-26T11:30:58.684Z,1.00
2019-04-26T11:33:28.952Z,1.00
2019-04-26T11:36:03.420Z,1.00
2019-04-26T11:38:36.336Z,1.00
2019-04-26T11:41:06.915Z,1.00
2019-04-26T11:43:37.460Z,1.00
2019-04-26T11:46:07.110Z,1.00
2019-04-26T11:48:40.254Z,1.00
2019-04-26T11:51:12.684Z,1.00
2019-04-26T11:54:02.353Z,1.00
2019-04-26T11:56:33.981Z,1.00
2019-04-26T11:59:04.315Z,1.00
2019-04-26T12:05:49.853Z,1.00
2019-04-26T12:08:24.842Z,1.00
2019-04-26T12:10:54.561Z,1.00
2019-04-26T12:13:25.267Z,1.00
2019-04-26T12:16:18.722Z,1.00
2019-04-26T12:18:47.238Z,1.00
2019-04-26T12:24:29.287Z,1.00
2019-04-26T12:26:57.589Z,1.00
2019-04-26T12:29:30.727Z,1.00
2019-04-26T12:32:03.757Z,1.00
2019-04-26T12:34:34.369Z,1.00
2019-04-26T12:37:08.114Z,1.00
2019-04-26T12:39:38.296Z,1.00
2019-04-26T12:42:11.978Z,1.00
2019-04-26T12:44:52.511Z,1.00
2019-04-26T12:47:26.211Z,1.00
2019-04-26T12:49:58.984Z,1.00
2019-04-26T12:52:27.320Z,1.00
2019-04-26T12:54:57.746Z,1.00
2019-04-26T12:57:27.485Z,1.00
2019-04-26T12:59:57.601Z,1.00
2019-04-26T13:02:28.557Z,1.00
2019-04-26T13:04:58.276Z,1.00
2019-04-26T13:07:28.208Z,1.00
2019-04-26T13:10:15.765Z,1.00
2019-04-26T13:12:55.113Z,1.00
2019-04-26T13:15:59.745Z,1.00
2019-04-26T13:18:29.726Z,1.00
2019-04-26T13:22:13.567Z,1.00
2019-04-26T13:24:43.241Z,1.00
2019-04-26T13:27:12.971Z,1.00
2019-04-26T13:29:42.701Z,1.00
2019-04-26T13:32:12.364Z,1.00
2019-04-26T13:34:42.137Z,1.00
2019-04-26T13:37:12.032Z,1.00
2019-04-26T13:39:41.751Z,1.00
2019-04-26T13:42:13.711Z,1.00
2019-04-26T13:45:14.034Z,1.00
2019-04-26T13:48:08.977Z,1.00
2019-04-26T13:50:42.254Z,1.00
2019-04-26T13:53:11.960Z,1.00
2019-04-26T13:55:41.957Z,1.00
2019-04-26T13:58:15.292Z,1.00
2019-04-26T14:00:43.626Z,1.00
2019-04-26T14:03:14.599Z,1.00
2019-04-26T14:05:44.340Z,1.00
2019-04-26T14:08:14.030Z,1.00
2019-04-26T14:10:45.604Z,1.00
2019-04-26T14:13:15.350Z,1.00
2019-04-26T14:15:48.668Z,1.00
2019-04-26T14:18:16.611Z,1.00
2019-04-26T14:20:46.389Z,1.00
2019-04-26T14:23:34.097Z,1.00
2019-04-26T14:26:14.969Z,1.00
2019-04-26T14:28:44.987Z,1.00
2019-04-26T14:31:16.440Z,1.00
2019-04-26T14:33:46.336Z,1.00
2019-04-26T14:36:17.919Z,1.00
2019-04-26T14:38:47.873Z,1.00
2019-04-26T14:41:21.836Z,1.00
2019-04-26T14:43:52.664Z,1.00
2019-04-26T14:46:22.893Z,1.00
2019-04-26T14:49:01.803Z,1.00
2019-04-26T14:51:23.527Z,1.00
2019-04-26T14:53:53.526Z,1.00
2019-04-26T14:56:24.658Z,1.00
2019-04-26T14:58:55.092Z,1.00
2019-04-26T15:01:53.166Z,1.00
2019-04-26T15:04:42.352Z,1.00
2019-04-26T15:07:12.430Z,1.00
2019-04-26T15:09:42.901Z,1.00
2019-04-26T15:12:15.810Z,1.00
2019-04-26T15:14:44.053Z,1.00
2019-04-26T15:17:16.446Z,1.00
2019-04-26T15:19:47.192Z,1.00
2019-04-26T15:22:16.810Z,1.00
2019-04-26T15:24:46.478Z,1.00
2019-04-26T15:27:16.192Z,1.00
2019-04-26T15:29:45.971Z,1.00
2019-04-26T15:32:15.786Z,1.00
2019-04-26T15:34:45.574Z,1.00
2019-04-26T15:37:16.234Z,1.00
2019-04-26T15:39:58.737Z,1.00
2019-04-26T15:42:58.703Z,1.00
2019-04-26T15:45:25.128Z,1.00
2019-04-26T15:48:29.473Z,1.00
2019-04-26T15:50:59.183Z,1.00
2019-04-26T15:53:28.872Z,1.00
2019-04-26T15:55:58.575Z,1.00
2019-04-26T15:58:28.299Z,1.00
2019-04-26T16:00:58.277Z,1.00
2019-04-26T16:03:27.977Z,1.00
2019-04-26T16:05:59.639Z,1.00
2019-04-26T16:08:29.135Z,1.00
2019-04-26T16:10:58.822Z,1.00
2019-04-26T16:13:28.496Z,1.00
2019-04-26T16:15:58.204Z,1.00
2019-04-26T16:18:27.932Z,1.00
2019-04-26T16:20:57.600Z,1.00
2019-04-26T16:23:38.498Z,1.00
2019-04-26T16:25:58.747Z,1.00
2019-04-26T16:28:38.402Z,1.00
2019-04-26T16:31:21.385Z,1.00
2019-04-26T16:33:53.009Z,1.00
2019-04-26T16:36:24.018Z,1.00
2019-04-26T16:38:56.556Z,1.00
2019-04-26T16:41:27.215Z,1.00
2019-04-26T16:43:56.866Z,1.00
2019-04-26T16:46:26.762Z,1.00
2019-04-26T16:49:02.369Z,1.00
2019-04-26T16:51:28.218Z,1.00
2019-04-26T16:54:06.684Z,1.00
2019-04-26T16:56:29.771Z,1.00
2019-04-26T16:58:59.457Z,1.00
2019-04-26T17:01:29.477Z,1.00
2019-04-26T17:03:59.169Z,1.00
2019-04-26T17:06:28.988Z,1.00
2019-04-26T17:09:01.594Z,1.00
2019-04-26T17:11:34.214Z,1.00
2019-04-26T17:14:04.874Z,1.00
2019-04-26T17:16:36.914Z,1.00
2019-04-26T17:19:04.643Z,1.00
2019-04-26T17:21:40.207Z,1.20
2019-04-26T17:24:22.441Z,1.40
2019-04-26T17:26:56.359Z,1.70
2019-04-26T17:29:26.067Z,1.50
2019-04-26T17:31:55.907Z,2.60
2019-04-26T17:34:29.007Z,2.60
2019-04-26T17:36:57.227Z,2.90
2019-04-26T17:39:27.040Z,3.30
2019-04-26T17:41:56.958Z,3.60
2019-04-26T17:44:28.302Z,4.30
2019-04-26T17:47:00.243Z,4.60
2019-04-26T17:49:34.211Z,5.40
2019-04-26T17:52:02.017Z,5.20
2019-04-26T17:54:46.182Z,6.00
2019-04-26T17:57:04.215Z,6.70
2019-04-26T17:59:36.850Z,7.10
2019-04-26T18:02:19.790Z,7.40
2019-04-26T18:04:40.743Z,7.90
2019-04-26T18:07:36.249Z,8.00
2019-04-26T18:09:46.249Z,8.30
2019-04-26T18:12:13.524Z,8.40
2019-04-26T18:14:43.272Z,7.70
2019-04-26T18:17:23.162Z,8.70
2019-04-26T18:20:06.531Z,8.80
2019-04-26T18:22:42.810Z,9.10
2019-04-26T18:25:14.567Z,9.50
2019-04-26T18:27:44.548Z,9.80
2019-04-26T18:30:15.118Z,10.00
2019-04-26T18:32:47.788Z,10.20
2019-04-26T18:35:17.075Z,10.50
2019-04-26T18:37:46.740Z,10.80
2019-04-26T18:40:16.439Z,11.30
2019-04-26T18:42:46.153Z,11.70
2019-04-26T18:45:21.276Z,12.00
2019-04-26T18:47:47.471Z,12.20
2019-04-26T18:50:18.762Z,12.80
2019-04-26T18:53:15.778Z,12.90
2019-04-26T18:55:45.968Z,12.90
2019-04-26T18:58:15.653Z,12.90
2019-04-26T19:00:45.408Z,12.80
2019-04-26T19:03:16.060Z,13.40
2019-04-26T19:05:46.175Z,13.60
2019-04-26T19:08:15.840Z,13.90
2019-04-26T19:10:58.007Z,14.30
2019-04-26T19:13:36.461Z,14.40
2019-04-26T19:16:19.705Z,14.70
2019-04-26T19:18:57.266Z,15.00
2019-04-26T19:21:38.961Z,15.10
2019-04-26T19:24:07.213Z,15.30
2019-04-26T19:26:35.665Z,15.50
2019-04-26T19:29:15.459Z,15.70
2019-04-26T19:31:56.558Z,15.70
2019-04-26T19:34:30.155Z,15.70
2019-04-26T19:37:00.816Z,16.40
2019-04-26T19:39:33.734Z,15.70
2019-04-26T19:42:05.995Z,15.60
2019-04-26T19:44:35.397Z,15.50
2019-04-26T19:47:22.768Z,15.60
2019-04-26T19:50:11.231Z,15.60
2019-04-26T19:52:46.404Z,15.90
2019-04-26T19:55:34.202Z,16.20
2019-04-26T19:58:09.674Z,16.40
2019-04-26T20:00:43.458Z,16.60
2019-04-26T20:03:15.187Z,16.70
2019-04-26T20:05:44.213Z,16.90
2019-04-26T20:08:14.359Z,17.00
2019-04-26T20:10:45.872Z,17.10
2019-04-26T20:13:16.756Z,17.10
2019-04-26T20:15:47.224Z,17.10
2019-04-26T20:18:17.710Z,17.20
2019-04-26T20:20:48.041Z,17.30
2019-04-26T20:23:19.634Z,17.50
2019-04-26T20:25:51.505Z,17.50
2019-04-26T20:28:22.819Z,17.50
2019-04-26T20:31:07.060Z,17.40
2019-04-26T20:33:34.922Z,17.30
2019-04-26T20:36:04.820Z,17.50
2019-04-26T20:38:42.681Z,17.70
2019-04-26T20:41:06.958Z,17.90
2019-04-26T20:43:44.415Z,18.00
2019-04-26T20:46:14.881Z,18.30
2019-04-26T20:48:42.587Z,18.70
2019-04-26T20:51:12.854Z,19.30
2019-04-26T20:53:43.789Z,19.80
2019-04-26T20:56:18.182Z,20.00
2019-04-26T20:58:47.183Z,21.10
2019-04-26T21:01:17.655Z,20.20
2019-04-26T21:03:47.939Z,20.70
2019-04-26T21:06:17.978Z,20.80
2019-04-26T21:08:48.098Z,20.70
2019-04-26T21:11:18.241Z,20.60
2019-04-26T21:13:48.330Z,20.60
2019-04-26T21:16:18.448Z,22.10
2019-04-26T21:18:48.491Z,22.40
2019-04-26T21:21:18.649Z,22.40
2019-04-26T21:23:50.536Z,22.70
2019-04-26T21:26:54.501Z,22.80
2019-04-26T21:29:43.526Z,22.60
2019-04-26T21:32:25.943Z,23.00
2019-04-26T21:34:56.012Z,23.00
2019-04-26T21:37:36.620Z,23.10
2019-04-26T21:40:16.909Z,23.20
2019-04-26T21:42:45.196Z,23.40
2019-04-26T21:45:15.896Z,23.40
2019-04-26T21:47:45.945Z,24.00
2019-04-26T21:50:16.117Z,24.60
2019-04-26T21:52:46.470Z,26.70
2019-04-26T21:55:16.789Z,26.80
2019-04-26T21:57:46.889Z,36.20
2019-04-26T22:00:36.654Z,45.20
2019-04-26T22:03:07.803Z,56.40
2019-04-26T22:05:38.556Z,64.80
2019-04-26T22:08:08.717Z,74.70
2019-04-26T22:10:44.636Z,79.20
2019-04-26T22:13:23.048Z,83.70
2019-04-26T22:16:30.653Z,88.40
2019-04-26T22:18:56.803Z,90.70
2019-04-26T22:21:34.003Z,93.60
2019-04-26T22:24:08.565Z,95.20
2019-04-26T22:26:44.398Z,95.40
2019-04-26T22:29:14.220Z,97.50
2019-04-26T22:31:42.963Z,99.30
2019-04-26T22:34:13.042Z,99.90
2019-04-26T22:36:43.975Z,99.90
2019-04-26T22:39:18.967Z,99.90
2019-04-26T22:41:49.208Z,99.90
2019-04-26T22:44:34.642Z,99.90
2019-04-26T22:47:25.901Z,99.90
2019-04-26T22:49:56.129Z,99.90
2019-04-26T22:52:26.262Z,99.90
2019-04-26T22:54:56.443Z,99.90
2019-04-26T22:57:26.639Z,99.90
2019-04-26T22:59:56.792Z,99.90
2019-04-26T23:02:27.754Z,99.90
2019-04-26T23:05:00.646Z,99.90
2019-04-26T23:07:30.273Z,99.90
2019-04-26T23:10:00.696Z,99.90
2019-04-26T23:12:44.086Z,99.90
2019-04-26T23:15:30.138Z,99.90
2019-04-26T23:18:08.359Z,99.90
2019-04-26T23:20:45.620Z,99.90
2019-04-26T23:23:16.093Z,99.90
2019-04-26T23:25:46.165Z,99.90
2019-04-26T23:28:16.266Z,99.90
2019-04-26T23:30:47.009Z,99.90
2019-04-26T23:33:17.045Z,99.90
2019-04-26T23:35:47.778Z,99.90
2019-04-26T23:38:17.921Z,99.90
2019-04-26T23:40:48.163Z,99.90
2019-04-26T23:43:24.081Z,99.90
2019-04-26T23:45:50.026Z,99.90
2019-04-26T23:48:20.360Z,99.90
2019-04-26T23:50:50.429Z,99.90
2019-04-26T23:53:24.127Z,99.90
2019-04-26T23:55:55.941Z,99.90
2019-04-26T23:58:45.663Z,99.90
